createdAt,value
2023-02-13T00:04:07.981Z,100.00
2023-02-13T00:09:10.383Z,100.00
2023-02-13T00:14:13.981Z,100.00
2023-02-13T00:19:17.292Z,100.00
2023-02-13T00:24:19.346Z,100.00
2023-02-13T00:29:22.804Z,100.00
2023-02-13T00:34:24.611Z,100.00
2023-02-13T00:39:26.469Z,100.00
2023-02-13T00:44:29.964Z,100.00
2023-02-13T00:49:32.037Z,100.00
2023-02-13T00:54:34.080Z,100.00
2023-02-13T00:59:37.841Z,100.00
2023-02-13T01:04:39.920Z,100.00
2023-02-13T01:09:42.103Z,100.00
2023-02-13T01:14:45.599Z,100.00
2023-02-13T01:19:47.984Z,100.00
2023-02-13T01:24:50.074Z,100.00
2023-02-13T01:29:53.252Z,100.00
2023-02-13T01:34:55.007Z,100.00
2023-02-13T01:39:57.606Z,100.00
2023-02-13T01:45:02.151Z,100.00
2023-02-13T01:50:08.386Z,100.00
2023-02-13T01:55:12.156Z,100.00
2023-02-13T02:00:18.172Z,100.00
2023-02-13T02:05:22.422Z,100.00
2023-02-13T02:10:24.609Z,100.00
2023-02-13T02:15:28.745Z,100.00
2023-02-13T02:20:52.025Z,100.00
2023-02-13T02:26:33.029Z,100.00
2023-02-13T02:32:06.627Z,100.00
2023-02-13T02:37:28.962Z,100.00
2023-02-13T02:42:40.909Z,100.00
2023-02-13T02:47:54.413Z,100.00
2023-02-13T02:53:14.422Z,100.00
2023-02-13T02:58:20.765Z,100.00
2023-02-13T03:03:25.519Z,100.00
2023-02-13T03:08:29.590Z,100.00
2023-02-13T03:13:38.918Z,100.00
2023-02-13T03:18:46.258Z,100.00
2023-02-13T03:23:59.884Z,100.00
2023-02-13T03:29:12.687Z,100.00
2023-02-13T03:34:21.798Z,100.00
2023-02-13T03:39:31.718Z,100.00
2023-02-13T03:44:40.944Z,100.00
2023-02-13T03:49:49.862Z,100.00
2023-02-13T03:54:56.491Z,100.00
2023-02-13T04:00:01.237Z,100.00
2023-02-13T04:05:09.978Z,100.00
2023-02-13T04:10:15.368Z,100.00
2023-02-13T04:15:21.058Z,100.00
2023-02-13T04:20:27.582Z,100.00
2023-02-13T04:25:29.537Z,100.00
2023-02-13T04:30:31.771Z,100.00
2023-02-13T04:35:35.185Z,100.00
2023-02-13T04:40:37.322Z,100.00
2023-02-13T04:45:39.296Z,100.00
2023-02-13T04:50:42.464Z,100.00
2023-02-13T04:55:44.712Z,100.00
2023-02-13T05:00:46.999Z,100.00
2023-02-13T05:05:50.839Z,100.00
2023-02-13T05:10:52.764Z,100.00
2023-02-13T05:15:54.969Z,100.00
2023-02-13T05:20:58.922Z,100.00
2023-02-13T05:26:01.278Z,100.00
2023-02-13T05:31:03.777Z,100.00
2023-02-13T05:36:08.306Z,100.00
2023-02-13T05:41:10.561Z,100.00
2023-02-13T05:46:12.338Z,100.00
2023-02-13T05:51:16.165Z,100.00
2023-02-13T05:56:18.010Z,100.00
2023-02-13T06:01:20.562Z,100.00
2023-02-13T06:06:23.778Z,100.00
2023-02-13T06:11:25.901Z,100.00
2023-02-13T06:16:28.035Z,100.00
2023-02-13T06:21:31.543Z,100.00
2023-02-13T06:26:33.637Z,100.00
2023-02-13T06:31:35.732Z,100.00
2023-02-13T06:36:39.536Z,100.00
2023-02-13T06:41:41.665Z,100.00
2023-02-13T06:46:43.578Z,100.00
2023-02-13T06:51:47.240Z,100.00
2023-02-13T06:56:49.213Z,100.00
2023-02-13T07:01:51.167Z,100.00
2023-02-13T07:06:56.144Z,100.00
2023-02-13T07:11:58.984Z,100.00
2023-02-13T07:17:00.995Z,100.00
2023-02-13T07:22:04.474Z,100.00
2023-02-13T07:27:06.758Z,100.00
2023-02-13T07:32:08.947Z,100.00
2023-02-13T07:37:12.522Z,100.00
2023-02-13T07:42:14.351Z,100.00
2023-02-13T07:47:18.302Z,100.00
2023-02-13T07:52:22.814Z,100.00
2023-02-13T07:57:24.992Z,100.00
2023-02-13T08:02:27.031Z,100.00
2023-02-13T08:07:31.181Z,100.00
2023-02-13T08:12:36.078Z,100.00
2023-02-13T08:17:38.353Z,100.00
2023-02-13T08:22:41.546Z,100.00
2023-02-13T08:27:44.002Z,100.00
2023-02-13T08:32:54.249Z,100.00
2023-02-13T08:38:02.389Z,100.00
2023-02-13T08:43:06.365Z,100.00
2023-02-13T08:48:08.805Z,100.00
2023-02-13T08:53:12.321Z,100.00
2023-02-13T08:58:14.137Z,100.00
2023-02-13T09:03:16.760Z,100.00
2023-02-13T09:08:20.504Z,100.00
2023-02-13T09:13:22.702Z,100.00
2023-02-13T09:18:24.849Z,99.41
2023-02-13T09:23:31.426Z,98.98
2023-02-13T09:28:35.431Z,98.94
2023-02-13T09:33:37.854Z,98.93
2023-02-13T09:38:41.417Z,99.84
2023-02-13T09:43:47.567Z,100.00
2023-02-13T09:48:54.077Z,100.00
2023-02-13T09:54:00.375Z,100.00
2023-02-13T09:59:08.292Z,100.00
2023-02-13T10:04:30.434Z,99.46
2023-02-13T10:09:44.821Z,98.16
2023-02-13T10:14:58.667Z,98.34
2023-02-13T10:20:05.407Z,97.89
2023-02-13T10:25:17.166Z,97.55
2023-02-13T10:30:22.500Z,97.47
2023-02-13T10:35:29.871Z,94.86
2023-02-13T10:40:39.138Z,94.05
2023-02-13T10:45:54.453Z,93.84
2023-02-13T10:51:06.059Z,93.15
2023-02-13T10:56:25.454Z,91.69
2023-02-13T11:01:36.203Z,93.26
2023-02-13T11:06:42.716Z,92.83
2023-02-13T11:11:45.924Z,92.53
2023-02-13T11:16:51.216Z,93.70
2023-02-13T11:21:56.768Z,93.57
2023-02-13T11:27:03.043Z,93.51
2023-02-13T11:32:22.235Z,93.17
2023-02-13T11:37:26.859Z,92.83
2023-02-13T11:42:34.313Z,92.86
2023-02-13T11:47:39.499Z,92.02
2023-02-13T11:52:42.335Z,91.64
2023-02-13T11:57:56.674Z,89.71
2023-02-13T12:02:58.929Z,89.59
2023-02-13T12:08:01.555Z,87.69
2023-02-13T12:13:14.522Z,88.03
2023-02-13T12:18:22.935Z,87.27
2023-02-13T12:23:34.105Z,86.72
2023-02-13T12:28:52.640Z,88.26
2023-02-13T12:34:23.078Z,88.54
2023-02-13T12:39:31.425Z,88.07
2023-02-13T12:45:00.766Z,87.94
2023-02-13T12:50:23.950Z,87.37
2023-02-13T12:56:06.672Z,88.05
2023-02-13T13:01:24.204Z,87.14
2023-02-13T13:06:54.573Z,87.76
2023-02-13T13:12:17.589Z,88.57
2023-02-13T13:17:34.292Z,88.46
2023-02-13T13:22:43.825Z,89.40
2023-02-13T13:27:50.158Z,91.17
2023-02-13T13:33:00.822Z,90.72
2023-02-13T13:38:13.271Z,91.01
2023-02-13T13:43:23.643Z,90.52
2023-02-13T13:48:50.629Z,90.15
2023-02-13T13:54:19.435Z,89.59
2023-02-13T14:00:00.025Z,89.83
2023-02-13T14:05:18.279Z,89.18
2023-02-13T14:11:05.662Z,90.22
2023-02-13T14:16:11.890Z,90.76
2023-02-13T14:21:24.056Z,90.62
2023-02-13T14:26:32.844Z,90.56
2023-02-13T14:31:36.421Z,90.59
2023-02-13T14:36:42.351Z,90.45
2023-02-13T14:41:57.397Z,90.21
2023-02-13T14:47:02.234Z,90.41
2023-02-13T14:52:09.742Z,89.80
2023-02-13T14:57:18.337Z,89.32
2023-02-13T15:02:24.410Z,89.43
2023-02-13T15:07:31.115Z,90.84
2023-02-13T15:12:34.718Z,90.47
2023-02-13T15:17:37.087Z,90.06
2023-02-13T15:22:46.086Z,90.25
2023-02-13T15:27:52.755Z,90.47
2023-02-13T15:32:56.209Z,90.86
2023-02-13T15:38:01.056Z,90.17
2023-02-13T15:43:04.341Z,90.43
2023-02-13T15:48:06.560Z,91.16
2023-02-13T15:53:15.424Z,91.25
2023-02-13T15:58:17.665Z,91.50
2023-02-13T16:03:20.626Z,91.57
2023-02-13T16:08:33.686Z,91.60
2023-02-13T16:13:36.164Z,91.71
2023-02-13T16:18:40.660Z,91.96
2023-02-13T16:23:45.993Z,91.99
2023-02-13T16:28:49.018Z,92.20
2023-02-13T16:33:51.088Z,92.06
2023-02-13T16:38:54.728Z,90.98
2023-02-13T16:43:58.320Z,90.20
2023-02-13T16:49:19.919Z,89.48
2023-02-13T16:54:28.273Z,88.96
2023-02-13T16:59:41.644Z,89.56
2023-02-13T17:04:45.685Z,90.70
2023-02-13T17:10:00.825Z,91.64
2023-02-13T17:15:03.235Z,91.87
2023-02-13T17:20:06.212Z,91.84
2023-02-13T17:25:17.034Z,92.64
2023-02-13T17:30:21.397Z,93.28
2023-02-13T17:35:23.612Z,93.41
2023-02-13T17:40:28.651Z,93.56
2023-02-13T17:45:34.267Z,93.63
2023-02-13T17:50:37.135Z,93.75
2023-02-13T17:55:41.092Z,92.61
2023-02-13T18:00:43.415Z,92.90
2023-02-13T18:05:47.485Z,92.72
2023-02-13T18:10:50.728Z,92.60
2023-02-13T18:15:52.877Z,92.36
2023-02-13T18:20:56.356Z,92.83
2023-02-13T18:26:07.932Z,93.46
2023-02-13T18:31:10.323Z,92.50
2023-02-13T18:36:12.764Z,91.52
2023-02-13T18:41:16.081Z,90.87
2023-02-13T18:46:18.191Z,90.17
2023-02-13T18:51:20.218Z,89.73
2023-02-13T18:56:23.507Z,90.44
2023-02-13T19:01:26.083Z,90.20
2023-02-13T19:06:28.251Z,89.93
2023-02-13T19:11:31.480Z,90.60
2023-02-13T19:16:35.341Z,90.53
2023-02-13T19:21:39.719Z,90.02
2023-02-13T19:26:43.543Z,89.49
2023-02-13T19:31:45.910Z,89.34
2023-02-13T19:36:47.795Z,88.96
2023-02-13T19:41:51.422Z,89.23
2023-02-13T19:46:53.712Z,89.68
2023-02-13T19:51:56.066Z,89.70
2023-02-13T19:56:59.512Z,89.63
2023-02-13T20:02:01.863Z,89.49
2023-02-13T20:07:07.813Z,89.38
2023-02-13T20:12:11.281Z,89.64
2023-02-13T20:17:13.520Z,89.76
2023-02-13T20:22:15.808Z,89.89
2023-02-13T20:27:19.939Z,89.57
2023-02-13T20:32:22.213Z,89.93
2023-02-13T20:37:24.370Z,89.69
2023-02-13T20:42:27.966Z,89.26
2023-02-13T20:47:30.626Z,89.31
2023-02-13T20:52:34.271Z,89.73
2023-02-13T20:57:38.349Z,90.43
2023-02-13T21:02:41.103Z,90.35
2023-02-13T21:07:43.513Z,90.21
2023-02-13T21:12:47.098Z,88.77
2023-02-13T21:17:49.319Z,88.49
2023-02-13T21:22:51.306Z,87.54
2023-02-13T21:27:54.808Z,87.29
2023-02-13T21:32:56.559Z,86.79
2023-02-13T21:37:58.726Z,86.88
2023-02-13T21:43:02.176Z,86.81
2023-02-13T21:48:04.946Z,85.31
2023-02-13T21:53:07.033Z,83.99
2023-02-13T21:58:10.297Z,83.64
2023-02-13T22:03:12.323Z,83.99
2023-02-13T22:08:14.517Z,84.33
2023-02-13T22:13:18.004Z,84.01
2023-02-13T22:18:20.054Z,84.59
2023-02-13T22:23:21.827Z,84.52
2023-02-13T22:28:25.413Z,85.01
2023-02-13T22:33:27.942Z,85.48
2023-02-13T22:38:32.263Z,83.03
2023-02-13T22:43:35.946Z,82.60
2023-02-13T22:48:39.289Z,83.00
2023-02-13T22:53:41.520Z,84.04
2023-02-13T22:58:45.005Z,82.97
2023-02-13T23:03:47.143Z,82.50
2023-02-13T23:08:49.934Z,82.97
2023-02-13T23:13:53.537Z,83.96
2023-02-13T23:18:57.484Z,83.79
2023-02-13T23:23:59.780Z,83.95
2023-02-13T23:29:03.072Z,83.06
2023-02-13T23:34:05.398Z,82.86
2023-02-13T23:39:07.499Z,83.13
2023-02-13T23:44:11.134Z,83.77
2023-02-13T23:49:13.403Z,84.57
2023-02-13T23:54:16.423Z,83.87
2023-02-13T23:59:20.848Z,84.76
